Terminal Aerodrome Forecast
Issued by NWS

Home | Current Version | Previous Version | Text Only | Print | Product List | Glossary On
Versions: 1 2 3 4 5 6 7 8 9 10 11 12 13 14 15 16 17 18 19 20
000
FTAK31 PANC 210531
TAFACD
TAF
PACD 210531Z 2106/2206 VRB04KT P6SM SCT025 BKN040
      TEMPO 2106/2108 BKN025
     FM211600 13015G22KT P6SM SCT050 BKN090
     FM212000 13020G28KT 6SM -RA BR SCT015 OVC025=

USA.gov is the U.S. government's official web portal to all federal, state and local government web resources and services.